sensor_id;sensor_type;location;lat;lon;timestamp;pressure;altitude;pressure_sealevel;temperature;humidity
17209;BME280;8720;48.488;9.202;2023-05-23T00:00:25;96880.41;;;20.59;57.53
17209;BME280;8720;48.488;9.202;2023-05-23T00:02:53;96881.44;;;20.56;57.51
17209;BME280;8720;48.488;9.202;2023-05-23T00:05:22;96885.16;;;20.54;57.30
17209;BME280;8720;48.488;9.202;2023-05-23T00:07:51;96886.22;;;20.51;57.49
17209;BME280;8720;48.488;9.202;2023-05-23T00:10:18;96888.97;;;20.50;57.37
17209;BME280;8720;48.488;9.202;2023-05-23T00:12:46;96899.91;;;20.45;57.44
17209;BME280;8720;48.488;9.202;2023-05-23T00:15:13;96893.84;;;20.43;57.62
17209;BME280;8720;48.488;9.202;2023-05-23T00:17:41;96892.97;;;20.43;57.45
17209;BME280;8720;48.488;9.202;2023-05-23T00:20:10;96896.63;;;20.42;57.88
17209;BME280;8720;48.488;9.202;2023-05-23T00:22:39;96898.50;;;20.40;57.65
17209;BME280;8720;48.488;9.202;2023-05-23T00:25:08;96902.88;;;20.41;57.87
17209;BME280;8720;48.488;9.202;2023-05-23T00:27:36;96871.00;;;20.27;58.33
17209;BME280;8720;48.488;9.202;2023-05-23T00:30:04;96898.19;;;20.44;57.85
17209;BME280;8720;48.488;9.202;2023-05-23T00:32:32;96893.75;;;20.45;58.06
17209;BME280;8720;48.488;9.202;2023-05-23T00:35:00;96896.94;;;20.50;58.00
17209;BME280;8720;48.488;9.202;2023-05-23T00:37:27;96892.31;;;20.53;58.51
17209;BME280;8720;48.488;9.202;2023-05-23T00:39:56;96890.41;;;20.55;58.29
17209;BME280;8720;48.488;9.202;2023-05-23T00:42:23;96896.38;;;20.59;58.43
17209;BME280;8720;48.488;9.202;2023-05-23T00:44:52;96897.88;;;20.63;58.41
17209;BME280;8720;48.488;9.202;2023-05-23T00:47:19;96897.66;;;20.66;58.28
17209;BME280;8720;48.488;9.202;2023-05-23T00:49:46;96891.19;;;20.70;58.30
17209;BME280;8720;48.488;9.202;2023-05-23T00:52:14;96889.06;;;20.75;58.20
17209;BME280;8720;48.488;9.202;2023-05-23T00:54:42;96883.00;;;20.73;58.56
17209;BME280;8720;48.488;9.202;2023-05-23T00:57:11;96889.41;;;20.83;58.43
17209;BME280;8720;48.488;9.202;2023-05-23T00:59:39;96897.09;;;20.88;58.43
17209;BME280;8720;48.488;9.202;2023-05-23T01:02:07;96903.06;;;20.91;58.23
17209;BME280;8720;48.488;9.202;2023-05-23T01:04:35;96896.56;;;20.95;58.26
17209;BME280;8720;48.488;9.202;2023-05-23T01:07:04;96899.75;;;21.00;58.17
17209;BME280;8720;48.488;9.202;2023-05-23T01:09:31;96900.38;;;21.05;58.43
17209;BME280;8720;48.488;9.202;2023-05-23T01:12:16;96899.28;;;21.08;58.10
17209;BME280;8720;48.488;9.202;2023-05-23T01:14:58;96908.69;;;21.13;58.26
17209;BME280;8720;48.488;9.202;2023-05-23T01:17:40;96890.81;;;21.15;58.35
17209;BME280;8720;48.488;9.202;2023-05-23T01:20:14;96901.00;;;21.21;58.08
17209;BME280;8720;48.488;9.202;2023-05-23T01:23:12;96894.75;;;21.22;57.67
17209;BME280;8720;48.488;9.202;2023-05-23T01:26:13;96903.38;;;21.26;57.84
17209;BME280;8720;48.488;9.202;2023-05-23T01:28:50;96906.56;;;21.31;57.93
17209;BME280;8720;48.488;9.202;2023-05-23T01:31:23;96905.31;;;21.36;58.03
17209;BME280;8720;48.488;9.202;2023-05-23T01:33:54;96905.09;;;21.39;57.59
17209;BME280;8720;48.488;9.202;2023-05-23T01:36:22;96896.88;;;21.42;57.71
17209;BME280;8720;48.488;9.202;2023-05-23T01:38:51;96899.34;;;21.45;57.88
17209;BME280;8720;48.488;9.202;2023-05-23T01:41:18;96897.44;;;21.47;57.90
17209;BME280;8720;48.488;9.202;2023-05-23T01:43:47;96890.19;;;21.49;57.52
17209;BME280;8720;48.488;9.202;2023-05-23T01:46:15;96892.63;;;21.52;57.61
17209;BME280;8720;48.488;9.202;2023-05-23T01:48:44;96896.03;;;21.54;57.78
17209;BME280;8720;48.488;9.202;2023-05-23T01:51:12;96897.75;;;21.55;57.70
17209;BME280;8720;48.488;9.202;2023-05-23T01:53:40;96892.22;;;21.58;57.81
17209;BME280;8720;48.488;9.202;2023-05-23T01:56:09;96897.41;;;21.60;57.82
17209;BME280;8720;48.488;9.202;2023-05-23T01:58:36;96898.50;;;21.57;57.63
17209;BME280;8720;48.488;9.202;2023-05-23T02:04:00;96894.69;;;21.61;57.60
17209;BME280;8720;48.488;9.202;2023-05-23T02:06:27;96898.09;;;21.63;58.03
17209;BME280;8720;48.488;9.202;2023-05-23T02:08:54;96903.19;;;21.66;57.57
17209;BME280;8720;48.488;9.202;2023-05-23T02:11:23;96903.94;;;21.68;57.58
17209;BME280;8720;48.488;9.202;2023-05-23T02:13:51;96905.53;;;21.71;57.86
17209;BME280;8720;48.488;9.202;2023-05-23T02:16:19;96908.94;;;21.73;57.52
17209;BME280;8720;48.488;9.202;2023-05-23T02:18:48;96905.31;;;21.74;57.78
17209;BME280;8720;48.488;9.202;2023-05-23T02:21:18;96908.94;;;21.73;57.32
17209;BME280;8720;48.488;9.202;2023-05-23T02:23:46;96916.81;;;21.75;57.89
17209;BME280;8720;48.488;9.202;2023-05-23T02:26:16;96918.50;;;21.76;57.45
17209;BME280;8720;48.488;9.202;2023-05-23T02:28:43;96920.22;;;21.77;57.65
17209;BME280;8720;48.488;9.202;2023-05-23T02:31:11;96911.16;;;21.79;57.74
17209;BME280;8720;48.488;9.202;2023-05-23T02:33:38;96919.91;;;21.81;57.62
17209;BME280;8720;48.488;9.202;2023-05-23T02:36:05;96910.88;;;21.84;57.44
17209;BME280;8720;48.488;9.202;2023-05-23T02:38:34;96913.41;;;21.85;57.69
17209;BME280;8720;48.488;9.202;2023-05-23T02:41:02;96908.00;;;21.87;57.67
17209;BME280;8720;48.488;9.202;2023-05-23T02:43:29;96914.16;;;21.87;57.34
17209;BME280;8720;48.488;9.202;2023-05-23T02:45:57;96912.25;;;21.89;57.38
17209;BME280;8720;48.488;9.202;2023-05-23T02:48:24;96912.13;;;21.91;57.69
17209;BME280;8720;48.488;9.202;2023-05-23T02:50:52;96915.66;;;21.91;57.58
17209;BME280;8720;48.488;9.202;2023-05-23T02:53:19;96912.88;;;21.93;57.18
17209;BME280;8720;48.488;9.202;2023-05-23T02:55:49;96913.75;;;21.93;57.20
17209;BME280;8720;48.488;9.202;2023-05-23T02:58:16;96918.00;;;21.96;57.73
17209;BME280;8720;48.488;9.202;2023-05-23T03:00:44;96910.88;;;21.96;57.82
17209;BME280;8720;48.488;9.202;2023-05-23T03:03:11;96908.97;;;21.98;57.52
17209;BME280;8720;48.488;9.202;2023-05-23T03:05:38;96907.13;;;21.99;57.51
17209;BME280;8720;48.488;9.202;2023-05-23T03:08:05;96906.19;;;22.00;57.63
17209;BME280;8720;48.488;9.202;2023-05-23T03:10:33;96906.19;;;22.00;57.43
17209;BME280;8720;48.488;9.202;2023-05-23T03:13:02;96903.41;;;22.01;57.16
17209;BME280;8720;48.488;9.202;2023-05-23T03:15:29;96902.53;;;22.01;57.44
17209;BME280;8720;48.488;9.202;2023-05-23T03:17:57;96899.00;;;22.00;57.53
17209;BME280;8720;48.488;9.202;2023-05-23T03:20:24;96908.09;;;21.98;57.18
17209;BME280;8720;48.488;9.202;2023-05-23T03:22:51;96907.25;;;21.97;57.49
17209;BME280;8720;48.488;9.202;2023-05-23T03:25:18;96909.03;;;21.97;57.53
17209;BME280;8720;48.488;9.202;2023-05-23T03:27:46;96910.88;;;21.96;57.60
17209;BME280;8720;48.488;9.202;2023-05-23T03:30:15;96911.69;;;21.97;57.21
17209;BME280;8720;48.488;9.202;2023-05-23T03:32:43;96906.28;;;21.98;57.39
17209;BME280;8720;48.488;9.202;2023-05-23T03:35:11;96909.78;;;21.99;57.54
17209;BME280;8720;48.488;9.202;2023-05-23T03:37:38;96909.91;;;21.97;57.40
17209;BME280;8720;48.488;9.202;2023-05-23T03:40:07;96913.63;;;21.95;57.62
17209;BME280;8720;48.488;9.202;2023-05-23T03:42:35;96914.59;;;21.94;57.51
17209;BME280;8720;48.488;9.202;2023-05-23T03:45:05;96922.78;;;21.91;57.27
17209;BME280;8720;48.488;9.202;2023-05-23T03:47:34;96926.66;;;21.87;57.10
17209;BME280;8720;48.488;9.202;2023-05-23T03:50:02;96926.84;;;21.84;57.37
17209;BME280;8720;48.488;9.202;2023-05-23T03:52:30;96935.97;;;21.80;57.16
17209;BME280;8720;48.488;9.202;2023-05-23T03:54:57;96927.38;;;21.76;57.15
17209;BME280;8720;48.488;9.202;2023-05-23T03:57:24;96926.63;;;21.74;57.04
17209;BME280;8720;48.488;9.202;2023-05-23T03:59:52;96933.00;;;21.71;57.08
17209;BME280;8720;48.488;9.202;2023-05-23T04:02:20;96934.09;;;21.69;57.14
17209;BME280;8720;48.488;9.202;2023-05-23T04:04:49;96931.50;;;21.67;57.22
17209;BME280;8720;48.488;9.202;2023-05-23T04:07:16;96928.00;;;21.67;57.22
17209;BME280;8720;48.488;9.202;2023-05-23T04:09:44;96929.94;;;21.65;57.43
17209;BME280;8720;48.488;9.202;2023-05-23T04:12:13;96931.72;;;21.64;57.57
17209;BME280;8720;48.488;9.202;2023-05-23T04:14:40;96927.38;;;21.63;57.73
17209;BME280;8720;48.488;9.202;2023-05-23T04:17:08;96930.03;;;21.63;57.28
17209;BME280;8720;48.488;9.202;2023-05-23T04:19:37;96925.66;;;21.62;57.52
17209;BME280;8720;48.488;9.202;2023-05-23T04:22:06;96923.00;;;21.62;57.83
17209;BME280;8720;48.488;9.202;2023-05-23T04:24:33;96920.34;;;21.62;57.31
17209;BME280;8720;48.488;9.202;2023-05-23T04:27:00;96921.19;;;21.63;57.35
17209;BME280;8720;48.488;9.202;2023-05-23T04:29:28;96921.94;;;21.65;57.66
17209;BME280;8720;48.488;9.202;2023-05-23T04:31:56;96921.31;;;21.61;57.89
17209;BME280;8720;48.488;9.202;2023-05-23T04:34:24;96927.03;;;21.68;57.44
17209;BME280;8720;48.488;9.202;2023-05-23T04:36:53;96933.09;;;21.70;57.93
17209;BME280;8720;48.488;9.202;2023-05-23T04:39:22;96945.38;;;21.73;57.52
17209;BME280;8720;48.488;9.202;2023-05-23T04:42:10;96943.47;;;21.75;58.00
17209;BME280;8720;48.488;9.202;2023-05-23T04:44:48;96936.41;;;21.73;57.83
17209;BME280;8720;48.488;9.202;2023-05-23T04:47:21;96940.69;;;21.76;57.63
17209;BME280;8720;48.488;9.202;2023-05-23T04:50:05;96943.22;;;21.78;57.94
17209;BME280;8720;48.488;9.202;2023-05-23T04:52:33;96941.22;;;21.81;57.71
17209;BME280;8720;48.488;9.202;2023-05-23T04:55:03;96939.22;;;21.85;57.68
17209;BME280;8720;48.488;9.202;2023-05-23T04:57:31;96939.00;;;21.88;57.79
17209;BME280;8720;48.488;9.202;2023-05-23T05:00:00;96947.75;;;21.90;57.53
17209;BME280;8720;48.488;9.202;2023-05-23T05:02:32;96944.84;;;21.93;57.62
17209;BME280;8720;48.488;9.202;2023-05-23T05:05:02;96939.63;;;21.91;57.79
17209;BME280;8720;48.488;9.202;2023-05-23T05:07:30;96952.53;;;21.97;57.96
17209;BME280;8720;48.488;9.202;2023-05-23T05:09:57;96941.75;;;21.99;57.60
17209;BME280;8720;48.488;9.202;2023-05-23T05:12:26;96954.97;;;22.00;57.49
17209;BME280;8720;48.488;9.202;2023-05-23T05:14:53;96946.03;;;22.01;57.62
17209;BME280;8720;48.488;9.202;2023-05-23T05:17:22;96956.56;;;22.03;57.95
17209;BME280;8720;48.488;9.202;2023-05-23T05:20:02;96957.53;;;22.02;57.47
17209;BME280;8720;48.488;9.202;2023-05-23T05:22:34;96965.44;;;22.03;57.68
17209;BME280;8720;48.488;9.202;2023-05-23T05:25:06;96960.97;;;22.04;57.28
17209;BME280;8720;48.488;9.202;2023-05-23T05:27:36;96965.44;;;22.03;57.48
17209;BME280;8720;48.488;9.202;2023-05-23T05:30:07;96960.97;;;22.04;57.51
17209;BME280;8720;48.488;9.202;2023-05-23T05:32:49;96961.91;;;22.03;57.50
17209;BME280;8720;48.488;9.202;2023-05-23T05:35:17;96959.34;;;22.01;57.75
17209;BME280;8720;48.488;9.202;2023-05-23T05:37:45;96962.00;;;22.01;57.45
17209;BME280;8720;48.488;9.202;2023-05-23T05:40:13;96968.19;;;22.02;57.55
17209;BME280;8720;48.488;9.202;2023-05-23T05:42:47;96964.69;;;22.01;57.84
17209;BME280;8720;48.488;9.202;2023-05-23T05:45:14;96961.16;;;22.01;57.53
17209;BME280;8720;48.488;9.202;2023-05-23T05:47:45;96972.56;;;22.03;57.58
17209;BME280;8720;48.488;9.202;2023-05-23T05:50:12;96977.88;;;22.03;57.74
17209;BME280;8720;48.488;9.202;2023-05-23T05:52:40;96975.97;;;22.05;57.45
17209;BME280;8720;48.488;9.202;2023-05-23T05:55:10;96972.34;;;22.06;57.63
17209;BME280;8720;48.488;9.202;2023-05-23T05:57:39;96977.47;;;22.09;57.88
17209;BME280;8720;48.488;9.202;2023-05-23T06:00:12;96979.19;;;22.10;57.64
17209;BME280;8720;48.488;9.202;2023-05-23T06:02:50;96981.00;;;22.09;57.44
17209;BME280;8720;48.488;9.202;2023-05-23T06:05:42;96982.78;;;22.09;57.80
17209;BME280;8720;48.488;9.202;2023-05-23T06:08:10;96983.81;;;22.44;57.19
17209;BME280;8720;48.488;9.202;2023-05-23T06:10:38;96982.53;;;22.37;57.69
17209;BME280;8720;48.488;9.202;2023-05-23T06:13:05;96973.72;;;22.24;57.51
17209;BME280;8720;48.488;9.202;2023-05-23T06:15:35;96984.81;;;22.30;57.72
17209;BME280;8720;48.488;9.202;2023-05-23T06:18:02;96983.75;;;22.33;57.59
17209;BME280;8720;48.488;9.202;2023-05-23T06:20:31;96990.66;;;22.35;57.65
17209;BME280;8720;48.488;9.202;2023-05-23T06:23:01;96992.25;;;22.38;57.86
17209;BME280;8720;48.488;9.202;2023-05-23T06:25:30;96984.88;;;22.41;57.73
17209;BME280;8720;48.488;9.202;2023-05-23T06:27:57;96978.59;;;22.42;57.40
17209;BME280;8720;48.488;9.202;2023-05-23T06:30:25;96980.91;;;22.47;57.65
17209;BME280;8720;48.488;9.202;2023-05-23T06:32:55;96987.75;;;22.51;57.41
17209;BME280;8720;48.488;9.202;2023-05-23T06:35:24;96994.56;;;22.55;57.19
17209;BME280;8720;48.488;9.202;2023-05-23T06:37:52;96995.34;;;22.57;57.14
17209;BME280;8720;48.488;9.202;2023-05-23T06:40:20;96989.75;;;22.60;57.12
17209;BME280;8720;48.488;9.202;2023-05-23T06:42:47;96994.78;;;22.65;57.18
17209;BME280;8720;48.488;9.202;2023-05-23T06:45:35;96997.13;;;22.69;57.14
17209;BME280;8720;48.488;9.202;2023-05-23T06:48:04;97000.41;;;22.73;57.56
17209;BME280;8720;48.488;9.202;2023-05-23T06:50:34;97004.69;;;22.75;57.09
17209;BME280;8720;48.488;9.202;2023-05-23T06:53:02;97009.03;;;22.76;56.69
17209;BME280;8720;48.488;9.202;2023-05-23T06:55:29;97001.03;;;22.76;56.73
17209;BME280;8720;48.488;9.202;2023-05-23T06:57:59;97006.25;;;22.78;57.45
17209;BME280;8720;48.488;9.202;2023-05-23T07:00:29;97007.75;;;22.82;56.72
17209;BME280;8720;48.488;9.202;2023-05-23T07:03:07;97007.41;;;22.86;56.84
17209;BME280;8720;48.488;9.202;2023-05-23T07:05:34;97012.50;;;22.89;56.75
17209;BME280;8720;48.488;9.202;2023-05-23T07:08:02;97010.50;;;22.93;56.61
17209;BME280;8720;48.488;9.202;2023-05-23T07:10:29;97017.81;;;23.02;56.83
17209;BME280;8720;48.488;9.202;2023-05-23T07:13:06;97014.59;;;23.09;56.08
17209;BME280;8720;48.488;9.202;2023-05-23T07:15:34;97013.41;;;23.13;56.42
17209;BME280;8720;48.488;9.202;2023-05-23T07:18:10;97021.03;;;23.18;56.24
17209;BME280;8720;48.488;9.202;2023-05-23T07:20:37;97014.63;;;23.20;56.36
17209;BME280;8720;48.488;9.202;2023-05-23T07:23:12;97015.25;;;23.24;55.85
17209;BME280;8720;48.488;9.202;2023-05-23T07:25:40;97019.53;;;23.26;55.69
17209;BME280;8720;48.488;9.202;2023-05-23T07:30:47;97013.03;;;23.18;55.73
17209;BME280;8720;48.488;9.202;2023-05-23T07:33:17;97018.78;;;23.24;55.56
17209;BME280;8720;48.488;9.202;2023-05-23T07:35:45;97023.38;;;23.22;55.57
17209;BME280;8720;48.488;9.202;2023-05-23T07:38:13;97028.09;;;23.19;55.59
17209;BME280;8720;48.488;9.202;2023-05-23T07:40:40;97036.25;;;23.17;55.58
17209;BME280;8720;48.488;9.202;2023-05-23T07:43:08;97037.41;;;23.13;55.86
17209;BME280;8720;48.488;9.202;2023-05-23T07:45:35;97036.81;;;23.10;55.43
17209;BME280;8720;48.488;9.202;2023-05-23T07:48:03;97038.94;;;23.05;55.67
17209;BME280;8720;48.488;9.202;2023-05-23T07:50:32;97031.28;;;23.00;55.50
17209;BME280;8720;48.488;9.202;2023-05-23T07:52:59;97035.88;;;22.98;55.62
17209;BME280;8720;48.488;9.202;2023-05-23T07:55:30;97028.81;;;22.97;55.66
17209;BME280;8720;48.488;9.202;2023-05-23T07:57:58;97043.16;;;22.96;56.06
17209;BME280;8720;48.488;9.202;2023-05-23T08:00:27;97038.88;;;22.94;55.94
17209;BME280;8720;48.488;9.202;2023-05-23T08:03:01;97038.25;;;22.90;55.71
17209;BME280;8720;48.488;9.202;2023-05-23T08:05:36;97036.75;;;22.86;55.57
17209;BME280;8720;48.488;9.202;2023-05-23T08:08:04;97045.94;;;22.82;55.82
17209;BME280;8720;48.488;9.202;2023-05-23T08:10:32;97041.78;;;22.78;55.69
17209;BME280;8720;48.488;9.202;2023-05-23T08:13:08;97049.28;;;22.73;55.43
17209;BME280;8720;48.488;9.202;2023-05-23T08:15:44;97046.44;;;22.64;55.65
17209;BME280;8720;48.488;9.202;2023-05-23T08:18:16;97051.53;;;22.54;55.59
17209;BME280;8720;48.488;9.202;2023-05-23T08:20:44;97057.50;;;22.45;55.11
17209;BME280;8720;48.488;9.202;2023-05-23T08:23:12;97047.50;;;22.36;55.65
17209;BME280;8720;48.488;9.202;2023-05-23T08:25:40;97049.84;;;22.28;55.24
17209;BME280;8720;48.488;9.202;2023-05-23T08:28:07;97059.97;;;22.23;55.46
17209;BME280;8720;48.488;9.202;2023-05-23T08:30:44;97062.09;;;22.18;55.18
17209;BME280;8720;48.488;9.202;2023-05-23T08:33:11;97065.91;;;22.14;55.26
17209;BME280;8720;48.488;9.202;2023-05-23T08:35:43;97067.53;;;22.04;55.51
17209;BME280;8720;48.488;9.202;2023-05-23T08:38:12;97072.88;;;22.04;55.45
17209;BME280;8720;48.488;9.202;2023-05-23T08:40:51;97072.75;;;22.05;55.46
17209;BME280;8720;48.488;9.202;2023-05-23T08:43:20;97078.19;;;22.04;55.17
17209;BME280;8720;48.488;9.202;2023-05-23T08:45:50;97073.47;;;21.95;55.32
17209;BME280;8720;48.488;9.202;2023-05-23T08:48:20;97089.03;;;22.01;55.71
17209;BME280;8720;48.488;9.202;2023-05-23T08:50:52;97093.84;;;21.96;55.01
17209;BME280;8720;48.488;9.202;2023-05-23T08:53:26;97087.78;;;21.94;55.55
17209;BME280;8720;48.488;9.202;2023-05-23T08:56:00;97087.03;;;21.92;55.14
17209;BME280;8720;48.488;9.202;2023-05-23T08:58:37;97091.38;;;21.93;54.96
17209;BME280;8720;48.488;9.202;2023-05-23T09:01:08;97098.44;;;21.94;55.49
17209;BME280;8720;48.488;9.202;2023-05-23T09:03:37;97088.81;;;21.91;55.04
17209;BME280;8720;48.488;9.202;2023-05-23T09:06:31;97102.03;;;21.93;55.14
17209;BME280;8720;48.488;9.202;2023-05-23T09:08:59;97111.84;;;21.92;54.83
17209;BME280;8720;48.488;9.202;2023-05-23T09:11:26;97104.06;;;21.89;55.17
17209;BME280;8720;48.488;9.202;2023-05-23T09:13:54;97109.50;;;21.88;55.00
17209;BME280;8720;48.488;9.202;2023-05-23T09:16:23;97108.22;;;21.81;55.07
17209;BME280;8720;48.488;9.202;2023-05-23T09:18:57;97114.44;;;21.80;55.07
17209;BME280;8720;48.488;9.202;2023-05-23T09:21:32;97115.59;;;21.76;55.10
17209;BME280;8720;48.488;9.202;2023-05-23T09:24:15;97115.59;;;21.76;55.20
17209;BME280;8720;48.488;9.202;2023-05-23T09:26:46;97126.25;;;21.76;54.49
17209;BME280;8720;48.488;9.202;2023-05-23T09:29:19;97131.59;;;21.76;54.50
17209;BME280;8720;48.488;9.202;2023-05-23T09:31:47;97135.22;;;21.75;54.19
17209;BME280;8720;48.488;9.202;2023-05-23T09:34:15;97130.06;;;21.71;54.42
17209;BME280;8720;48.488;9.202;2023-05-23T09:36:46;97138.94;;;21.72;54.27
17209;BME280;8720;48.488;9.202;2023-05-23T09:39:14;97128.38;;;21.70;54.24
17209;BME280;8720;48.488;9.202;2023-05-23T09:41:42;97128.38;;;21.70;54.22
17209;BME280;8720;48.488;9.202;2023-05-23T09:44:09;97127.53;;;21.70;54.07
17209;BME280;8720;48.488;9.202;2023-05-23T09:46:36;97136.56;;;21.67;53.96
17209;BME280;8720;48.488;9.202;2023-05-23T09:49:15;97139.44;;;21.64;54.26
17209;BME280;8720;48.488;9.202;2023-05-23T09:51:56;97142.75;;;21.68;54.44
17209;BME280;8720;48.488;9.202;2023-05-23T09:54:24;97138.00;;;21.73;54.13
17209;BME280;8720;48.488;9.202;2023-05-23T09:56:53;97135.75;;;21.80;54.01
17209;BME280;8720;48.488;9.202;2023-05-23T09:59:22;97139.00;;;21.85;54.26
17209;BME280;8720;48.488;9.202;2023-05-23T10:01:53;97145.09;;;21.87;54.22
17209;BME280;8720;48.488;9.202;2023-05-23T10:04:25;97145.94;;;21.87;53.83
17209;BME280;8720;48.488;9.202;2023-05-23T10:07:02;97143.16;;;21.89;54.20
17209;BME280;8720;48.488;9.202;2023-05-23T10:09:35;97145.81;;;21.89;53.63
17209;BME280;8720;48.488;9.202;2023-05-23T10:12:44;97148.81;;;21.84;54.07
17209;BME280;8720;48.488;9.202;2023-05-23T10:15:15;97151.66;;;21.81;53.46
17209;BME280;8720;48.488;9.202;2023-05-23T10:18:02;97154.72;;;21.75;53.74
17209;BME280;8720;48.488;9.202;2023-05-23T10:20:35;97154.38;;;21.67;53.54
17209;BME280;8720;48.488;9.202;2023-05-23T10:23:05;97151.13;;;21.62;53.47
17209;BME280;8720;48.488;9.202;2023-05-23T10:25:33;97146.88;;;21.59;53.63
17209;BME280;8720;48.488;9.202;2023-05-23T10:28:02;97153.25;;;21.57;53.84
17209;BME280;8720;48.488;9.202;2023-05-23T10:30:31;97152.41;;;21.56;53.81
17209;BME280;8720;48.488;9.202;2023-05-23T10:32:59;97151.53;;;21.56;53.53
17209;BME280;8720;48.488;9.202;2023-05-23T10:35:40;97150.59;;;21.57;53.65
17209;BME280;8720;48.488;9.202;2023-05-23T10:38:37;97154.19;;;21.56;53.60
17209;BME280;8720;48.488;9.202;2023-05-23T10:41:12;97144.22;;;21.59;53.66
17209;BME280;8720;48.488;9.202;2023-05-23T10:43:49;97143.91;;;21.64;53.42
17209;BME280;8720;48.488;9.202;2023-05-23T10:46:20;97150.84;;;21.66;53.35
17209;BME280;8720;48.488;9.202;2023-05-23T10:48:53;97142.63;;;21.69;53.66
17209;BME280;8720;48.488;9.202;2023-05-23T10:51:22;97144.91;;;21.76;53.32
17209;BME280;8720;48.488;9.202;2023-05-23T10:53:53;97146.50;;;21.78;53.20
17209;BME280;8720;48.488;9.202;2023-05-23T10:56:22;97141.19;;;21.78;53.10
17209;BME280;8720;48.488;9.202;2023-05-23T10:58:52;97142.88;;;21.79;52.93
17209;BME280;8720;48.488;9.202;2023-05-23T11:01:21;97141.34;;;21.89;53.23
17209;BME280;8720;48.488;9.202;2023-05-23T11:03:51;97138.28;;;21.95;53.01
17209;BME280;8720;48.488;9.202;2023-05-23T11:06:30;97135.72;;;22.06;52.51
17209;BME280;8720;48.488;9.202;2023-05-23T11:09:04;97137.88;;;22.14;52.77
17209;BME280;8720;48.488;9.202;2023-05-23T11:11:59;97137.81;;;22.28;52.38
17209;BME280;8720;48.488;9.202;2023-05-23T11:17:16;97131.34;;;22.57;52.47
17209;BME280;8720;48.488;9.202;2023-05-23T11:19:57;97129.50;;;22.70;51.90
17209;BME280;8720;48.488;9.202;2023-05-23T11:22:27;97127.47;;;22.86;52.04
17209;BME280;8720;48.488;9.202;2023-05-23T11:24:58;97131.72;;;23.01;51.80
17209;BME280;8720;48.488;9.202;2023-05-23T11:27:28;97126.03;;;23.18;51.24
17209;BME280;8720;48.488;9.202;2023-05-23T11:29:59;97135.72;;;23.32;50.95
17209;BME280;8720;48.488;9.202;2023-05-23T11:32:28;97130.38;;;23.44;51.26
17209;BME280;8720;48.488;9.202;2023-05-23T11:34:59;97120.91;;;23.52;51.05
17209;BME280;8720;48.488;9.202;2023-05-23T11:37:28;97128.03;;;23.64;50.74
17209;BME280;8720;48.488;9.202;2023-05-23T11:39:57;97125.88;;;23.69;50.47
17209;BME280;8720;48.488;9.202;2023-05-23T11:42:26;97122.84;;;23.73;49.78
17209;BME280;8720;48.488;9.202;2023-05-23T11:44:54;97122.41;;;23.79;50.16
17209;BME280;8720;48.488;9.202;2023-05-23T11:47:21;97120.34;;;23.83;49.53
17209;BME280;8720;48.488;9.202;2023-05-23T11:49:48;97112.09;;;23.86;49.46
17209;BME280;8720;48.488;9.202;2023-05-23T11:52:15;97119.03;;;23.88;49.28
17209;BME280;8720;48.488;9.202;2023-05-23T11:54:43;97111.50;;;23.93;49.36
17209;BME280;8720;48.488;9.202;2023-05-23T11:57:12;97115.53;;;23.99;48.77
17209;BME280;8720;48.488;9.202;2023-05-23T11:59:40;97117.13;;;24.01;48.78
17209;BME280;8720;48.488;9.202;2023-05-23T12:02:07;97111.47;;;24.06;49.00
17209;BME280;8720;48.488;9.202;2023-05-23T12:04:35;97115.25;;;24.14;48.74
17209;BME280;8720;48.488;9.202;2023-05-23T12:07:04;97109.09;;;24.25;48.42
17209;BME280;8720;48.488;9.202;2023-05-23T12:09:41;97101.81;;;24.38;48.58
17209;BME280;8720;48.488;9.202;2023-05-23T12:12:11;97112.31;;;24.52;48.00
17209;BME280;8720;48.488;9.202;2023-05-23T12:14:38;97108.03;;;24.61;48.07
17209;BME280;8720;48.488;9.202;2023-05-23T12:17:10;97104.28;;;24.63;47.07
17209;BME280;8720;48.488;9.202;2023-05-23T12:19:38;97103.81;;;24.58;47.09
17209;BME280;8720;48.488;9.202;2023-05-23T12:22:06;97103.56;;;24.50;46.75
17209;BME280;8720;48.488;9.202;2023-05-23T12:24:34;97098.34;;;24.49;46.87
17209;BME280;8720;48.488;9.202;2023-05-23T12:27:02;97100.75;;;24.52;47.04
17209;BME280;8720;48.488;9.202;2023-05-23T12:29:33;97099.41;;;24.57;46.67
17209;BME280;8720;48.488;9.202;2023-05-23T12:32:05;97107.09;;;24.62;46.45
17209;BME280;8720;48.488;9.202;2023-05-23T12:34:33;97080.34;;;24.51;46.42
17209;BME280;8720;48.488;9.202;2023-05-23T12:37:01;97095.06;;;24.67;46.26
17209;BME280;8720;48.488;9.202;2023-05-23T12:39:29;97100.09;;;24.72;46.08
17209;BME280;8720;48.488;9.202;2023-05-23T12:42:07;97097.75;;;24.78;45.76
17209;BME280;8720;48.488;9.202;2023-05-23T12:44:39;97080.59;;;24.70;45.57
17209;BME280;8720;48.488;9.202;2023-05-23T12:47:07;97092.41;;;24.78;45.29
17209;BME280;8720;48.488;9.202;2023-05-23T12:49:35;97090.31;;;24.82;45.35
17209;BME280;8720;48.488;9.202;2023-05-23T12:52:03;97090.69;;;24.88;45.40
17209;BME280;8720;48.488;9.202;2023-05-23T12:54:30;97088.50;;;24.93;45.12
17209;BME280;8720;48.488;9.202;2023-05-23T12:56:57;97100.66;;;24.97;44.87
17209;BME280;8720;48.488;9.202;2023-05-23T12:59:24;97100.06;;;24.94;44.67
17209;BME280;8720;48.488;9.202;2023-05-23T13:01:54;97088.88;;;24.89;44.81
17209;BME280;8720;48.488;9.202;2023-05-23T13:04:21;97091.31;;;24.92;45.12
17209;BME280;8720;48.488;9.202;2023-05-23T13:06:48;97087.41;;;24.96;44.87
17209;BME280;8720;48.488;9.202;2023-05-23T13:09:15;97088.75;;;25.01;44.54
17209;BME280;8720;48.488;9.202;2023-05-23T13:11:43;97085.25;;;25.01;43.86
17209;BME280;8720;48.488;9.202;2023-05-23T13:14:11;97088.13;;;24.98;44.14
17209;BME280;8720;48.488;9.202;2023-05-23T13:16:38;97099.94;;;24.95;43.90
17209;BME280;8720;48.488;9.202;2023-05-23T13:19:07;97086.81;;;24.92;43.71
17209;BME280;8720;48.488;9.202;2023-05-23T13:21:34;97090.47;;;24.91;44.22
17209;BME280;8720;48.488;9.202;2023-05-23T13:24:02;97103.00;;;24.91;43.88
17209;BME280;8720;48.488;9.202;2023-05-23T13:26:29;97096.66;;;24.92;44.20
17209;BME280;8720;48.488;9.202;2023-05-23T13:28:56;97106.28;;;24.94;43.88
17209;BME280;8720;48.488;9.202;2023-05-23T13:31:23;97100.06;;;24.94;43.77
17209;BME280;8720;48.488;9.202;2023-05-23T13:33:52;97101.41;;;24.88;43.75